EW0822 Weather Reports


time (UTC)temp
C
wind
direction
speed
KPH
gust
KPH
rain 1hr
cm
rain 24hr
cm
rain mn
cm
humidity
%
barometer
mb
20190421080217 18 109 0.0 4.8 0.00 0.00 0.00 41 1021.6
20190421074603 17 134 0.0 8.0 0.00 0.00 0.00 46 1021.7
20190421073058 16 133 0.0 0.0 0.00 0.00 0.00 51 1021.7
20190421071628 16 133 0.0 1.6 0.00 0.00 0.00 53 1021.9
20190421070055 15 133 0.0 0.0 0.00 0.00 0.00 54 1021.8
20190421064604 13 133 0.0 0.0 0.00 0.00 0.00 60 1021.9
20190421063029 12 133 0.0 0.0 0.00 0.00 0.00 64 1021.9
20190421061521 12 133 0.0 0.0 0.00 0.00 0.00 66 1022.0
20190421060029 12 133 0.0 0.0 0.00 0.00 0.00 68 1022.0
20190421054511 11 133 0.0 0.0 0.00 0.00 0.00 71 1022.1
20190421053135 10 133 0.0 0.0 0.00 0.00 0.00 74 1022.1
20190421051638 9 133 0.0 0.0 0.00 0.00 0.00 75 1022.2
20190421050143 8 133 0.0 0.0 0.00 0.00 0.00 76 1022.2
20190421044634 8 133 0.0 0.0 0.00 0.00 0.00 76 1022.2
20190421043129 8 133 0.0 0.0 0.00 0.00 0.00 76 1022.3
20190421041623 8 133 0.0 0.0 0.00 0.00 0.00 75 1022.4
20190421040127 9 133 0.0 0.0 0.00 0.00 0.00 75 1022.4
20190421034644 9 133 0.0 0.0 0.00 0.00 0.00 74 1022.6
20190421033138 9 133 0.0 0.0 0.00 0.00 0.00 74 1022.6
20190421031637 8 133 0.0 0.0 0.00 0.00 0.00 75 1022.7
20190421030108 9 133 0.0 0.0 0.00 0.00 0.00 74 1022.9
20190421024555 9 133 0.0 0.0 0.00 0.00 0.00 72 1023.0
20190421023102 10 133 0.0 0.0 0.00 0.00 0.00 70 1023.1
20190421021608 10 133 0.0 0.0 0.00 0.00 0.00 68 1023.2
20190421020043 11 133 0.0 0.0 0.00 0.00 0.00 66 1023.4
20190421014606 11 133 0.0 0.0 0.00 0.00 0.00 66 1023.4
20190421013040 11 133 0.0 0.0 0.00 0.00 0.00 63 1023.5
20190421011559 12 133 0.0 0.0 0.00 0.00 0.00 61 1023.5
20190421010030 12 133 0.0 0.0 0.00 0.00 0.00 58 1023.6
20190421004509 13 133 0.0 0.0 0.00 0.00 0.00 55 1023.6
20190421003011 13 133 0.0 0.0 0.00 0.00 0.00 53 1023.9
20190421001656 14 133 0.0 0.0 0.00 0.00 0.00 50 1023.9
20190421000151 15 133 0.0 0.0 0.00 0.00 0.00 48 1023.9
20190420234624 16 133 0.0 0.0 0.00 0.00 0.00 46 1024.0
20190420233112 16 98 0.0 11.3 0.00 0.00 0.00 43 1024.0
20190420231650 16 96 4.8 19.3 0.00 0.00 0.00 43 1024.1
20190420230141 17 94 4.8 14.5 0.00 0.00 0.00 43 1024.2
20190420224728 17 99 3.2 12.9 0.00 0.00 0.00 43 1024.3
20190420223102 17 80 3.2 14.5 0.00 0.00 0.00 43 1024.5
20190420221610 17 80 1.6 9.7 0.00 0.00 0.00 43 1024.5
20190420220119 17 83 3.2 11.3 0.00 0.00 0.00 43 1024.5
20190420214630 17 104 3.2 16.1 0.00 0.00 0.00 43 1024.6
20190420213155 17 80 1.6 12.9 0.00 0.00 0.00 42 1024.6
20190420211613 18 90 1.6 11.3 0.00 0.00 0.00 41 1024.6
20190420210135 18 85 8.0 19.3 0.00 0.00 0.00 41 1024.5
20190420204623 18 92 6.4 14.5 0.00 0.00 0.00 40 1024.5
20190420203050 18 72 11.3 25.7 0.00 0.00 0.00 39 1024.5
20190420201604 18 33 4.8 16.1 0.00 0.00 0.00 39 1024.5
20190420200217 19 59 0.0 9.7 0.00 0.00 0.00 38 1024.5
20190420194542 20 82 0.0 14.5 0.00 0.00 0.00 37 1024.4
20190420193056 20 76 1.6 19.3 0.00 0.00 0.00 36 1024.3
20190420191604 20 82 3.2 19.3 0.00 0.00 0.00 36 1024.2
20190420190055 20 71 3.2 9.7 0.00 0.00 0.00 35 1024.2
20190420184543 21 63 0.0 16.1 0.00 0.00 0.00 34 1024.2
20190420183056 21 80 1.6 14.5 0.00 0.00 0.00 33 1024.0
20190420181601 22 82 1.6 16.1 0.00 0.00 0.00 32 1024.1
20190420180045 22 75 1.6 16.1 0.00 0.00 0.00 31 1024.1
20190420174551 22 84 1.6 12.9 0.00 0.00 0.00 30 1024.0
20190420173044 23 33 3.2 19.3 0.00 0.00 0.00 29 1024.1
20190420171548 23 360 3.2 14.5 0.00 0.00 0.00 29 1024.1
20190420170101 23 44 4.8 20.9 0.00 0.00 0.00 29 1024.1
20190420164527 23 35 8.0 20.9 0.00 0.00 0.00 28 1024.2
20190420163022 24 9 6.4 17.7 0.00 0.00 0.00 27 1024.3
20190420161523 24 69 8.0 19.3 0.00 0.00 0.00 27 1024.4
20190420160034 24 5 6.4 22.5 0.00 0.00 0.00 27 1024.5
20190420154605 25 80 3.2 11.3 0.00 0.00 0.00 27 1024.5
20190420153050 25 19 0.0 4.8 0.00 0.00 0.00 24 1024.5
20190420151524 25 95 1.6 19.3 0.00 0.00 0.00 24 1024.7
20190420150101 25 111 0.0 6.4 0.00 0.00 0.00 24 1024.7
20190420144518 25 338 1.6 12.9 0.00 0.00 0.00 25 1025.0
20190420143045 25 355 3.2 16.1 0.00 0.00 0.00 25 1025.2
20190420141522 25 39 0.0 17.7 0.00 0.00 0.00 25 1025.4
20190420140024 25 17 0.0 9.7 0.00 0.00 0.00 25 1025.5
20190420134504 25 57 3.2 14.5 0.00 0.00 0.00 24 1025.7
20190420133011 25 62 1.6 12.9 0.00 0.00 0.00 24 1025.9
20190420131751 25 141 3.2 12.9 0.00 0.00 0.00 25 1026.1
20190420130231 25 22 0.0 12.9 0.00 0.00 0.00 25 1026.2
20190420124754 26 167 0.0 6.4 0.00 0.00 0.00 25 1026.3
20190420123135 25 153 0.0 11.3 0.00 0.00 0.00 26 1026.4
20190420121651 25 89 1.6 16.1 0.00 0.00 0.00 25 1026.7
20190420120206 25 116 1.6 17.7 0.00 0.00 0.00 26 1026.6
20190420114740 25 190 3.2 16.1 0.00 0.00 0.00 26 1027.0
20190420113212 23 322 1.6 11.3 0.00 0.00 0.00 31 1027.1
20190420111603 23 271 0.0 12.9 0.00 0.00 0.00 32 1027.3
20190420110156 22 313 1.6 8.0 0.00 0.00 0.00 33 1027.4
20190420104625 22 299 0.0 12.9 0.00 0.00 0.00 36 1027.5
20190420103107 22 271 3.2 9.7 0.00 0.00 0.00 36 1027.6
20190420101535 21 298 3.2 8.0 0.00 0.00 0.00 38 1027.8
20190420100051 20 301 0.0 6.4 0.00 0.00 0.00 39 1028.0
20190420094545 20 15 1.6 8.0 0.00 0.00 0.00 42 1028.0
20190420093056 20 5 0.0 4.8 0.00 0.00 0.00 43 1028.2
20190420091553 20 181 0.0 6.4 0.00 0.00 0.00 43 1028.3
20190420090012 18 243 0.0 3.2 0.00 0.00 0.00 44 1028.4
20190420084508 18 133 0.0 3.2 0.00 0.00 0.00 45 1028.4
20190420083001 18 132 0.0 4.8 0.00 0.00 0.00 46 1028.4
20190420081657 18 103 0.0 0.0 0.00 0.00 0.00 45 1028.4